Time;durP1;ratioP1;P1;durP2;ratioP2;P2;SDS_P1;SDS_P2;PMS_P1;PMS_P2;Temp;Humidity;BMP_temperature;BMP_pressure;BME280_temperature;BME280_humidity;BME280_pressure;Samples;Min_cycle;Max_cycle;Signal;HPM_P1;HPM_P2
2022/09/15 00:00:15;;;;;;;;;;;;;;;14.63;85.51;100680.34;4959583;28;19913;-60
2022/09/15 00:02:42;;;;;;;;;;;;;;;14.61;85.34;100674.16;4964166;28;20049;-60
2022/09/15 00:05:08;;;;;;;;;;;;;;;14.60;85.38;100677.69;4954837;28;19937;-60
2022/09/15 00:07:33;;;;;;;;;;;;;;;14.59;85.32;100675.91;4956135;28;19915;-64
2022/09/15 00:09:58;;;;;;;;;;;;;;;14.58;85.62;100668.91;4962543;28;19922;-64
2022/09/15 00:12:24;;;;;;;;;;;;;;;14.57;85.64;100667.16;4960672;28;19925;-64
2022/09/15 00:14:49;;;;;;;;;;;;;;;14.56;85.53;100668.03;4964669;28;20274;-64
2022/09/15 00:17:14;;;;;;;;;;;;;;;14.53;85.55;100666.28;4958492;28;19921;-64
2022/09/15 00:19:39;;;;;;;;;;;;;;;14.54;85.40;100669.75;4959090;28;19926;-64
2022/09/15 00:22:04;;;;;;;;;;;;;;;14.53;85.63;100668.03;4961110;28;20374;-64
2022/09/15 00:24:30;;;;;;;;;;;;;;;14.52;85.19;100671.50;4939029;28;20440;-64
2022/09/15 00:26:55;;;;;;;;;;;;;;;14.49;85.51;100671.50;4963078;28;19922;-64
2022/09/15 00:29:20;;;;;;;;;;;;;;;14.48;85.75;100662.75;4964871;28;20093;-64
2022/09/15 00:31:46;;;;;;;;;;;;;;;14.46;85.40;100656.63;4959460;28;19920;-65
2022/09/15 00:34:12;;;;;;;;;;;;;;;14.45;85.72;100649.63;4953523;28;19907;-64
2022/09/15 00:36:37;;;;;;;;;;;;;;;14.45;85.68;100649.63;4960275;28;20018;-61
2022/09/15 00:39:02;;;;;;;;;;;;;;;14.44;85.57;100647.91;4958003;28;19964;-60
2022/09/15 00:41:28;;;;;;;;;;;;;;;14.42;85.87;100645.28;4961725;28;19921;-60
2022/09/15 00:44:01;;;;;;;;;;;;;;;14.40;85.85;100652.22;4962376;28;19921;-60
2022/09/15 00:46:26;;;;;;;;;;;;;;;14.40;85.86;100648.75;4956988;28;19956;-61
2022/09/15 00:49:01;;;;;;;;;;;;;;;14.39;85.99;100653.09;4958361;28;19923;-60
2022/09/15 00:51:29;;;;;;;;;;;;;;;14.40;85.98;100656.63;4956490;28;19956;-60
2022/09/15 00:53:56;;;;;;;;;;;;;;;14.39;85.97;100647.84;4970747;28;19914;-61
2022/09/15 00:56:22;;;;;;;;;;;;;;;14.38;85.86;100659.22;4959490;28;20308;-60
2022/09/15 00:58:59;;;;;;;;;;;;;;;14.37;86.15;100659.22;4956162;28;20338;-60
2022/09/15 01:01:26;;;;;;;;;;;;;;;14.35;86.10;100653.97;4957135;28;20653;-60
2022/09/15 01:03:51;;;;;;;;;;;;;;;14.34;86.75;100657.47;4955543;28;19918;-60
2022/09/15 01:06:20;;;;;;;;;;;;;;;14.32;86.62;100659.16;4957383;28;19922;-60
2022/09/15 01:08:52;;;;;;;;;;;;;;;14.32;86.45;100653.94;4943424;28;19921;-61
2022/09/15 01:11:17;;;;;;;;;;;;;;;14.30;86.28;100663.53;4962148;28;19977;-60
2022/09/15 01:13:43;;;;;;;;;;;;;;;14.31;86.36;100656.53;4950993;28;19922;-60
2022/09/15 01:16:30;;;;;;;;;;;;;;;14.33;86.54;100660.06;4966942;28;19918;-60
2022/09/15 01:19:00;;;;;;;;;;;;;;;14.32;86.67;100658.31;4954446;28;20725;-61
2022/09/15 01:21:35;;;;;;;;;;;;;;;14.31;86.55;100659.16;4951447;28;19993;-61
2022/09/15 01:24:21;;;;;;;;;;;;;;;14.31;86.70;100660.06;4952075;28;20009;-60
2022/09/15 01:27:05;;;;;;;;;;;;;;;14.32;86.83;100664.41;4949313;28;20382;-60
2022/09/15 01:29:49;;;;;;;;;;;;;;;14.33;86.82;100652.22;4950692;28;19957;-60
2022/09/15 01:35:10;;;;;;;;;;;;;;;14.34;86.93;100657.47;4957827;28;20345;-60
2022/09/15 01:37:38;;;;;;;;;;;;;;;14.35;86.77;100647.84;4958009;28;19914;-60
2022/09/15 01:40:05;;;;;;;;;;;;;;;14.36;87.03;100660.94;4953115;28;19914;-60
2022/09/15 01:42:31;;;;;;;;;;;;;;;14.35;87.09;100653.97;4953038;28;19922;-60
2022/09/15 01:45:05;;;;;;;;;;;;;;;14.35;86.93;100659.22;4960012;28;20429;-60
2022/09/15 01:47:32;;;;;;;;;;;;;;;14.36;86.91;100650.47;4953693;28;19969;-63
2022/09/15 01:50:00;;;;;;;;;;;;;;;14.37;87.04;100660.09;4957063;28;19918;-63
2022/09/15 01:52:27;;;;;;;;;;;;;;;14.38;86.89;100653.97;4953315;28;19933;-63
2022/09/15 01:54:54;;;;;;;;;;;;;;;14.39;86.99;100660.09;4962871;28;19928;-64
2022/09/15 01:57:20;;;;;;;;;;;;;;;14.38;87.04;100653.97;4949148;28;19914;-64
2022/09/15 01:59:46;;;;;;;;;;;;;;;14.38;87.00;100653.97;4954885;28;19937;-64
2022/09/15 02:02:15;;;;;;;;;;;;;;;14.39;86.91;100660.09;4955902;28;19965;-63
2022/09/15 02:04:49;;;;;;;;;;;;;;;14.40;86.82;100657.47;4950890;28;19914;-64
2022/09/15 02:07:19;;;;;;;;;;;;;;;14.41;86.71;100659.25;4951317;28;20393;-64
2022/09/15 02:10:10;;;;;;;;;;;;;;;14.40;86.97;100654.00;4962213;28;19922;-63
2022/09/15 02:12:54;;;;;;;;;;;;;;;14.40;86.88;100657.47;4943741;28;19926;-64
2022/09/15 02:15:29;;;;;;;;;;;;;;;14.39;86.73;100650.47;4952220;28;20012;-64
2022/09/15 02:17:56;;;;;;;;;;;;;;;14.39;86.71;100645.22;4961656;28;19953;-60
2022/09/15 02:20:37;;;;;;;;;;;;;;;14.38;86.69;100653.09;4957598;28;20113;-61
2022/09/15 02:23:07;;;;;;;;;;;;;;;14.39;86.82;100654.84;4950955;28;19949;-60
2022/09/15 02:25:36;;;;;;;;;;;;;;;14.38;86.90;100651.38;4950711;28;19998;-60
2022/09/15 02:28:05;;;;;;;;;;;;;;;14.39;86.69;100654.84;4954760;28;19953;-60
2022/09/15 02:30:31;;;;;;;;;;;;;;;14.38;86.77;100651.38;4958010;28;19949;-60
2022/09/15 02:32:59;;;;;;;;;;;;;;;14.38;86.70;100648.75;4954023;28;20437;-60
2022/09/15 02:35:25;;;;;;;;;;;;;;;14.37;86.69;100651.34;4959178;28;19918;-60
2022/09/15 02:37:51;;;;;;;;;;;;;;;14.36;86.62;100649.59;4944913;28;19918;-60
2022/09/15 02:40:16;;;;;;;;;;;;;;;14.36;86.62;100650.47;4955142;28;19938;-60
2022/09/15 02:42:54;;;;;;;;;;;;;;;14.35;86.54;100643.50;4962353;28;20614;-60
2022/09/15 02:45:20;;;;;;;;;;;;;;;14.34;86.50;100646.06;4956247;28;19997;-60
2022/09/15 02:47:45;;;;;;;;;;;;;;;14.33;86.55;100655.69;4966571;28;20041;-60
2022/09/15 02:50:10;;;;;;;;;;;;;;;14.33;86.43;100653.06;4947538;28;19942;-60
2022/09/15 02:52:36;;;;;;;;;;;;;;;14.30;86.32;100653.06;4956349;28;19910;-60
2022/09/15 02:55:01;;;;;;;;;;;;;;;14.29;86.20;100647.81;4958369;28;19926;-60
2022/09/15 02:57:26;;;;;;;;;;;;;;;14.28;86.08;100652.19;4950945;28;19925;-61
2022/09/15 03:00:13;;;;;;;;;;;;;;;14.26;86.13;100646.94;4957685;28;20401;-60
2022/09/15 03:02:38;;;;;;;;;;;;;;;14.25;86.12;100647.81;4957856;28;19958;-60
2022/09/15 03:05:03;;;;;;;;;;;;;;;14.23;86.00;100651.28;4964713;28;19922;-60
2022/09/15 03:07:29;;;;;;;;;;;;;;;14.22;86.01;100647.78;4953747;28;19940;-60
2022/09/15 03:09:54;;;;;;;;;;;;;;;14.20;85.93;100654.75;4957637;28;20419;-61
2022/09/15 03:12:19;;;;;;;;;;;;;;;14.19;85.94;100665.22;4956200;28;19922;-61
2022/09/15 03:14:45;;;;;;;;;;;;;;;14.17;86.04;100664.34;4946070;28;20357;-60
2022/09/15 03:17:11;;;;;;;;;;;;;;;14.13;86.05;100668.69;4956259;28;19914;-60
2022/09/15 03:19:36;;;;;;;;;;;;;;;14.12;85.84;100660.81;4958128;28;20158;-61
2022/09/15 03:22:02;;;;;;;;;;;;;;;14.12;86.07;100663.44;4938767;29;20009;-60
2022/09/15 03:24:27;;;;;;;;;;;;;;;14.09;85.99;100665.19;4957595;28;20394;-60
2022/09/15 03:26:52;;;;;;;;;;;;;;;14.08;86.04;100665.16;4949321;28;19915;-60
2022/09/15 03:29:17;;;;;;;;;;;;;;;14.08;86.03;100673.03;4962804;28;19918;-60
2022/09/15 03:31:42;;;;;;;;;;;;;;;14.06;86.06;100677.38;4957939;28;19981;-60
2022/09/15 03:34:08;;;;;;;;;;;;;;;14.04;86.15;100682.59;4947030;28;20009;-60
2022/09/15 03:36:33;;;;;;;;;;;;;;;14.04;86.22;100689.59;4948629;28;20143;-60
2022/09/15 03:38:58;;;;;;;;;;;;;;;14.02;86.34;100688.69;4960400;28;20001;-60
2022/09/15 03:41:24;;;;;;;;;;;;;;;14.01;86.29;100693.06;4931646;29;19966;-60
2022/09/15 03:43:49;;;;;;;;;;;;;;;14.00;86.35;100693.91;4954017;28;19946;-61
2022/09/15 03:46:15;;;;;;;;;;;;;;;13.99;86.51;100692.19;4960694;28;19914;-63
2022/09/15 03:48:40;;;;;;;;;;;;;;;14.00;86.50;100695.69;4960561;28;19944;-64
2022/09/15 03:51:08;;;;;;;;;;;;;;;13.99;86.73;100702.66;4945686;28;20401;-64
2022/09/15 03:53:42;;;;;;;;;;;;;;;13.99;86.78;100697.44;4930119;28;19919;-64
2022/09/15 03:56:07;;;;;;;;;;;;;;;13.99;86.78;100688.66;4958270;28;20004;-63
2022/09/15 03:58:32;;;;;;;;;;;;;;;13.98;86.90;100693.03;4947796;28;20017;-64
2022/09/15 04:00:57;;;;;;;;;;;;;;;13.98;86.95;100689.56;4955121;28;20401;-63
2022/09/15 04:03:22;;;;;;;;;;;;;;;13.98;86.89;100693.03;4952662;28;19953;-64
2022/09/15 04:05:48;;;;;;;;;;;;;;;13.98;87.06;100690.44;4960466;28;19917;-63
2022/09/15 04:08:13;;;;;;;;;;;;;;;13.98;86.87;100686.94;4948950;28;19969;-64
2022/09/15 04:10:39;;;;;;;;;;;;;;;13.97;87.05;100685.19;4954263;28;20032;-64
2022/09/15 04:13:04;;;;;;;;;;;;;;;13.96;86.88;100689.56;4954860;28;20425;-63
2022/09/15 04:15:29;;;;;;;;;;;;;;;13.95;87.00;100685.16;4956824;28;19922;-64
2022/09/15 04:17:55;;;;;;;;;;;;;;;13.93;87.16;100681.63;4952858;28;19918;-60
2022/09/15 04:20:20;;;;;;;;;;;;;;;13.92;87.23;100687.78;4948279;28;19957;-60
2022/09/15 04:22:45;;;;;;;;;;;;;;;13.91;87.17;100684.25;4947865;29;19919;-61
2022/09/15 04:25:10;;;;;;;;;;;;;;;13.90;87.20;100682.53;4956830;28;19918;-61
2022/09/15 04:27:37;;;;;;;;;;;;;;;13.91;87.12;100688.63;4947825;28;19918;-60
2022/09/15 04:30:02;;;;;;;;;;;;;;;13.91;87.10;100686.88;4946592;28;19914;-60
2022/09/15 04:32:28;;;;;;;;;;;;;;;13.92;87.05;100687.78;4927140;29;19907;-60
2022/09/15 04:34:53;;;;;;;;;;;;;;;13.92;87.15;100687.78;4951086;28;19914;-60
2022/09/15 04:37:18;;;;;;;;;;;;;;;13.90;87.17;100682.53;4934966;29;19960;-60
2022/09/15 04:39:44;;;;;;;;;;;;;;;13.91;87.34;100681.63;4935130;28;19914;-60
2022/09/15 04:42:09;;;;;;;;;;;;;;;13.91;87.37;100678.16;4951693;28;20026;-60
2022/09/15 04:44:34;;;;;;;;;;;;;;;13.90;87.46;100682.53;4955536;28;19921;-60
2022/09/15 04:46:59;;;;;;;;;;;;;;;13.91;87.49;100688.63;4958371;28;19921;-60
2022/09/15 04:49:24;;;;;;;;;;;;;;;13.90;87.37;100685.16;4952002;28;20294;-60
2022/09/15 04:51:53;;;;;;;;;;;;;;;13.90;87.57;100686.88;4961592;28;20297;-61
2022/09/15 04:54:18;;;;;;;;;;;;;;;13.90;87.57;100686.88;4951823;28;19937;-60
2022/09/15 04:56:44;;;;;;;;;;;;;;;13.91;87.58;100693.88;4963331;28;20306;-60
2022/09/15 04:59:13;;;;;;;;;;;;;;;13.90;87.77;100686.88;4957172;28;19968;-60
2022/09/15 05:01:39;;;;;;;;;;;;;;;13.90;87.74;100687.75;4942152;28;19914;-61
2022/09/15 05:04:04;;;;;;;;;;;;;;;13.91;87.58;100691.25;4952566;28;19914;-60
2022/09/15 05:06:29;;;;;;;;;;;;;;;13.91;87.61;100691.25;4942811;28;19922;-61
2022/09/15 05:08:56;;;;;;;;;;;;;;;13.92;87.67;100687.78;4962352;28;20416;-60
2022/09/15 05:11:21;;;;;;;;;;;;;;;13.92;87.44;100677.28;4962544;28;20376;-61
2022/09/15 05:13:47;;;;;;;;;;;;;;;13.93;87.49;100678.16;4969234;28;19938;-60
2022/09/15 05:16:14;;;;;;;;;;;;;;;13.94;87.62;100682.53;4953776;28;19926;-60
2022/09/15 05:18:39;;;;;;;;;;;;;;;13.93;87.42;100684.25;4952976;28;19921;-60
2022/09/15 05:21:05;;;;;;;;;;;;;;;13.95;87.39;100681.66;4961889;28;20370;-61
2022/09/15 05:23:31;;;;;;;;;;;;;;;13.95;87.47;100679.94;4964785;28;19911;-60
2022/09/15 05:25:57;;;;;;;;;;;;;;;13.94;87.49;100683.41;4959748;28;19921;-60
2022/09/15 05:28:23;;;;;;;;;;;;;;;13.94;87.42;100682.53;4956646;28;19922;-60
2022/09/15 05:30:50;;;;;;;;;;;;;;;13.95;87.52;100686.88;4956984;28;19954;-61
2022/09/15 05:33:16;;;;;;;;;;;;;;;13.94;87.59;100693.88;4954080;28;19918;-60
2022/09/15 05:35:48;;;;;;;;;;;;;;;13.95;87.58;100695.66;4948798;28;19961;-61
2022/09/15 05:38:14;;;;;;;;;;;;;;;13.94;87.53;100693.88;4950697;29;19926;-60
2022/09/15 05:40:39;;;;;;;;;;;;;;;13.95;87.50;100692.13;4957061;28;20011;-61
2022/09/15 05:43:04;;;;;;;;;;;;;;;13.95;87.51;100695.66;4963719;28;20362;-61
2022/09/15 05:45:29;;;;;;;;;;;;;;;13.95;87.37;100706.13;4964396;28;19914;-61
2022/09/15 05:47:55;;;;;;;;;;;;;;;13.95;87.48;100706.13;4956285;28;20380;-63
2022/09/15 05:50:20;;;;;;;;;;;;;;;13.96;87.51;100712.22;4951589;28;19921;-64
2022/09/15 05:52:49;;;;;;;;;;;;;;;13.96;87.61;100712.22;4956538;28;19921;-63
2022/09/15 05:55:14;;;;;;;;;;;;;;;13.96;87.61;100715.75;4954991;28;19970;-63
2022/09/15 05:57:40;;;;;;;;;;;;;;;13.95;87.71;100713.09;4947049;28;19918;-63
2022/09/15 06:00:05;;;;;;;;;;;;;;;13.95;87.74;100719.22;4947513;28;19919;-63
2022/09/15 06:02:30;;;;;;;;;;;;;;;13.95;87.77;100721.84;4949051;28;19922;-63
2022/09/15 06:04:56;;;;;;;;;;;;;;;13.94;87.78;100721.84;4960397;28;19930;-63
2022/09/15 06:07:21;;;;;;;;;;;;;;;13.93;88.08;100718.31;4965617;28;19969;-64
2022/09/15 06:09:46;;;;;;;;;;;;;;;13.94;87.86;100725.31;4963189;28;19922;-63
2022/09/15 06:12:11;;;;;;;;;;;;;;;13.95;88.00;100723.56;4966732;28;20397;-63
2022/09/15 06:14:36;;;;;;;;;;;;;;;13.94;88.08;100730.56;4950519;28;19918;-64
2022/09/15 06:17:03;;;;;;;;;;;;;;;13.95;88.25;100727.06;4953975;28;20103;-64
2022/09/15 06:19:28;;;;;;;;;;;;;;;13.97;88.26;100729.72;4951576;28;20016;-63
2022/09/15 06:21:53;;;;;;;;;;;;;;;13.98;88.23;100732.34;4960113;28;19933;-63
2022/09/15 06:24:18;;;;;;;;;;;;;;;13.99;88.32;100736.72;4953105;28;19969;-64
2022/09/15 06:26:43;;;;;;;;;;;;;;;14.01;88.29;100740.22;4934796;29;20286;-64
2022/09/15 06:29:10;;;;;;;;;;;;;;;14.03;88.49;100743.75;4950884;28;19962;-64
2022/09/15 06:31:35;;;;;;;;;;;;;;;14.04;88.38;100742.00;4955128;28;19914;-64
2022/09/15 06:34:02;;;;;;;;;;;;;;;14.05;88.45;100747.25;4957381;28;19936;-63
2022/09/15 06:36:28;;;;;;;;;;;;;;;14.06;88.27;100741.16;4959939;28;19919;-63
2022/09/15 06:38:54;;;;;;;;;;;;;;;14.08;88.49;100749.88;4950145;28;20337;-64
2022/09/15 06:41:20;;;;;;;;;;;;;;;14.09;88.62;100743.78;4946095;28;19953;-64
2022/09/15 06:43:47;;;;;;;;;;;;;;;14.11;88.63;100750.75;4946980;28;20373;-64
2022/09/15 06:46:14;;;;;;;;;;;;;;;14.12;88.81;100750.78;4945130;28;20178;-64
2022/09/15 06:48:40;;;;;;;;;;;;;;;14.13;88.72;100756.91;4948089;28;19925;-64
2022/09/15 06:51:06;;;;;;;;;;;;;;;14.14;88.88;100753.44;4949929;28;19922;-64
2022/09/15 06:53:32;;;;;;;;;;;;;;;14.15;88.82;100760.41;4962852;28;19921;-64
2022/09/15 06:56:08;;;;;;;;;;;;;;;14.17;88.84;100763.94;4970064;28;20360;-64
2022/09/15 06:58:34;;;;;;;;;;;;;;;14.18;88.85;100769.19;4949404;28;19915;-64
2022/09/15 07:01:03;;;;;;;;;;;;;;;14.19;88.85;100770.03;4949958;28;20285;-64
2022/09/15 07:03:29;;;;;;;;;;;;;;;14.19;88.93;100768.31;4949193;28;19915;-63
2022/09/15 07:05:54;;;;;;;;;;;;;;;14.21;88.89;100776.19;4943433;28;19922;-64
2022/09/15 07:08:19;;;;;;;;;;;;;;;14.23;88.96;100780.56;4943385;28;19951;-64
2022/09/15 07:10:45;;;;;;;;;;;;;;;14.25;88.99;100783.19;4944968;28;19914;-64
2022/09/15 07:13:11;;;;;;;;;;;;;;;14.28;88.97;100783.22;4944331;28;19923;-64
2022/09/15 07:15:36;;;;;;;;;;;;;;;14.30;89.14;100781.50;4946351;28;19918;-64
2022/09/15 07:18:01;;;;;;;;;;;;;;;14.32;89.29;100784.97;4956699;28;19914;-64
2022/09/15 07:20:26;;;;;;;;;;;;;;;14.35;89.55;100787.66;4950742;28;20355;-63
2022/09/15 07:22:52;;;;;;;;;;;;;;;14.38;89.21;100789.41;4958730;28;20428;-63
2022/09/15 07:25:17;;;;;;;;;;;;;;;14.41;89.55;100794.66;4952958;28;20212;-63
2022/09/15 07:27:42;;;;;;;;;;;;;;;14.43;89.39;100799.06;4943629;28;19962;-61
2022/09/15 07:30:08;;;;;;;;;;;;;;;14.46;89.54;100797.34;4944876;28;19926;-61
2022/09/15 07:32:33;;;;;;;;;;;;;;;14.48;89.47;100791.22;4943046;28;19914;-61
2022/09/15 07:34:58;;;;;;;;;;;;;;;14.51;89.58;100790.34;4945860;28;20099;-60
2022/09/15 07:37:23;;;;;;;;;;;;;;;14.54;89.70;100798.25;4951728;29;19914;-60
2022/09/15 07:39:49;;;;;;;;;;;;;;;14.56;89.74;100796.53;4952338;28;19914;-60
2022/09/15 07:42:14;;;;;;;;;;;;;;;14.57;90.28;100798.25;4950472;28;20438;-60
2022/09/15 07:44:39;;;;;;;;;;;;;;;14.60;89.44;100806.16;4956330;28;19910;-60
2022/09/15 07:47:04;;;;;;;;;;;;;;;14.63;89.76;100806.22;4948762;28;19921;-60
2022/09/15 07:49:29;;;;;;;;;;;;;;;14.65;89.62;100804.47;4955781;28;20445;-60
2022/09/15 07:51:55;;;;;;;;;;;;;;;14.68;89.69;100804.47;4958482;28;19921;-59
2022/09/15 07:54:20;;;;;;;;;;;;;;;14.70;89.61;100802.78;4971653;28;19910;-59
2022/09/15 07:56:45;;;;;;;;;;;;;;;14.73;89.88;100802.78;4951190;28;19918;-59
2022/09/15 07:59:10;;;;;;;;;;;;;;;14.76;89.50;100808.03;4971793;28;19997;-60
2022/09/15 08:01:35;;;;;;;;;;;;;;;14.78;89.54;100819.41;4953650;28;19925;-60
2022/09/15 08:04:01;;;;;;;;;;;;;;;14.80;89.45;100821.16;4957201;28;19915;-60
2022/09/15 08:06:26;;;;;;;;;;;;;;;14.83;89.49;100818.56;4951191;28;19921;-60
2022/09/15 08:08:51;;;;;;;;;;;;;;;14.85;89.29;100822.09;4952288;28;19915;-60
2022/09/15 08:11:18;;;;;;;;;;;;;;;14.86;89.70;100827.34;4957729;28;19914;-60
2022/09/15 08:13:43;;;;;;;;;;;;;;;14.88;89.76;100832.59;4963151;28;19993;-59
2022/09/15 08:16:12;;;;;;;;;;;;;;;14.89;89.51;100832.59;4958875;28;20040;-60
2022/09/15 08:18:38;;;;;;;;;;;;;;;14.92;89.49;100830.00;4962732;28;20000;-60
2022/09/15 08:21:08;;;;;;;;;;;;;;;14.94;89.73;100830.84;4961544;28;19961;-60
2022/09/15 08:23:33;;;;;;;;;;;;;;;14.97;90.07;100824.75;4953293;28;19910;-60
2022/09/15 08:25:59;;;;;;;;;;;;;;;15.00;90.11;100830.00;4959657;28;19914;-60
2022/09/15 08:28:25;;;;;;;;;;;;;;;15.02;90.01;100830.91;4964178;28;19914;-60
2022/09/15 08:30:56;;;;;;;;;;;;;;;15.05;89.59;100830.94;4964172;28;20371;-59
2022/09/15 08:33:22;;;;;;;;;;;;;;;15.07;89.75;100834.44;4965698;28;19915;-59
2022/09/15 08:35:47;;;;;;;;;;;;;;;15.09;89.85;100842.31;4961202;28;20366;-59
2022/09/15 08:38:12;;;;;;;;;;;;;;;15.11;89.77;100845.84;4964286;28;19937;-59
2022/09/15 08:40:43;;;;;;;;;;;;;;;15.13;90.04;100846.69;4968213;28;19954;-60
2022/09/15 08:43:14;;;;;;;;;;;;;;;15.15;89.58;100842.34;4966944;28;20378;-59
2022/09/15 08:45:46;;;;;;;;;;;;;;;15.17;89.45;100847.63;4957250;28;19914;-59
2022/09/15 08:48:14;;;;;;;;;;;;;;;15.17;89.46;100845.84;4964732;28;20382;-59
2022/09/15 08:50:42;;;;;;;;;;;;;;;15.20;89.30;100847.63;4968624;28;19933;-59
2022/09/15 08:53:13;;;;;;;;;;;;;;;15.20;89.40;100845.88;4974734;28;19902;-59
2022/09/15 08:55:55;;;;;;;;;;;;;;;15.22;89.08;100849.38;4959923;28;19921;-60
2022/09/15 08:58:35;;;;;;;;;;;;;;;15.24;89.41;100857.28;4974891;28;20487;-63
2022/09/15 09:01:00;;;;;;;;;;;;;;;15.26;89.04;100858.13;4962000;28;19989;-63
2022/09/15 09:03:47;;;;;;;;;;;;;;;15.27;88.97;100863.41;4968300;28;19946;-63
2022/09/15 09:06:19;;;;;;;;;;;;;;;15.31;89.10;100869.56;4964268;28;20009;-63
2022/09/15 09:09:00;;;;;;;;;;;;;;;15.32;88.92;100866.03;4966491;28;19925;-63
2022/09/15 09:11:25;;;;;;;;;;;;;;;15.35;88.94;100875.69;4947382;28;19918;-64
2022/09/15 09:13:50;;;;;;;;;;;;;;;15.37;88.79;100873.97;4959452;28;19926;-63
2022/09/15 09:16:33;;;;;;;;;;;;;;;15.43;89.21;100879.22;4962913;28;19925;-62
2022/09/15 09:19:08;;;;;;;;;;;;;;;15.45;89.51;100873.13;4970394;28;19914;-63
2022/09/15 09:22:05;;;;;;;;;;;;;;;15.46;89.29;100877.47;4960543;28;19914;-63
2022/09/15 09:24:36;;;;;;;;;;;;;;;15.51;88.36;100881.88;4910340;28;19922;-62
2022/09/15 09:27:01;;;;;;;;;;;;;;;15.52;88.41;100884.50;4961937;28;19924;-60
2022/09/15 09:29:35;;;;;;;;;;;;;;;15.53;88.10;100880.16;4958375;28;20283;-59
2022/09/15 09:32:01;;;;;;;;;;;;;;;15.54;87.64;100882.78;4947963;28;19921;-59
2022/09/15 09:34:37;;;;;;;;;;;;;;;15.55;87.89;100876.63;4959320;28;19914;-59
2022/09/15 09:37:09;;;;;;;;;;;;;;;15.57;88.09;100892.41;4952320;28;20009;-59
2022/09/15 09:39:34;;;;;;;;;;;;;;;15.60;87.93;100881.94;4966325;28;19914;-59
2022/09/15 09:42:01;;;;;;;;;;;;;;;15.60;87.73;100888.03;4965640;28;19914;-60
2022/09/15 09:44:30;;;;;;;;;;;;;;;15.62;87.48;100882.78;4964999;28;19941;-59
2022/09/15 09:46:59;;;;;;;;;;;;;;;15.62;87.75;100888.03;4955480;28;20370;-59
2022/09/15 09:49:27;;;;;;;;;;;;;;;15.62;87.45;100881.03;4945234;28;19965;-59
2022/09/15 09:51:58;;;;;;;;;;;;;;;15.63;87.40;100887.19;4945955;28;19922;-59
2022/09/15 09:54:26;;;;;;;;;;;;;;;15.63;87.55;100879.31;4950035;28;19996;-59
2022/09/15 09:56:52;;;;;;;;;;;;;;;15.64;87.45;100888.91;4971213;28;20274;-64
2022/09/15 09:59:29;;;;;;;;;;;;;;;15.64;87.99;100889.81;4952732;28;20430;-63
2022/09/15 10:02:03;;;;;;;;;;;;;;;15.64;88.05;100895.06;4945388;28;19914;-63
2022/09/15 10:04:28;;;;;;;;;;;;;;;15.64;88.14;100894.16;4952678;28;19918;-63
2022/09/15 10:06:54;;;;;;;;;;;;;;;15.64;88.35;100889.81;4955357;28;19914;-63
2022/09/15 10:09:19;;;;;;;;;;;;;;;15.64;88.38;100887.19;4953360;28;19931;-63
2022/09/15 10:11:57;;;;;;;;;;;;;;;15.66;88.45;100895.06;4954433;28;19929;-63
2022/09/15 10:14:34;;;;;;;;;;;;;;;15.67;88.84;100891.59;4953358;28;19922;-63
2022/09/15 10:17:02;;;;;;;;;;;;;;;15.68;88.67;100901.19;4952742;28;19918;-63
2022/09/15 10:19:30;;;;;;;;;;;;;;;15.70;88.65;100898.56;4952729;28;19922;-63
2022/09/15 10:21:56;;;;;;;;;;;;;;;15.72;88.90;100899.47;4952132;28;19930;-63
2022/09/15 10:24:22;;;;;;;;;;;;;;;15.73;88.68;100893.31;4953283;28;19918;-63
2022/09/15 10:26:48;;;;;;;;;;;;;;;15.75;89.04;100888.97;4953592;28;20526;-59
2022/09/15 10:29:17;;;;;;;;;;;;;;;15.77;88.79;100885.47;4949075;28;20342;-58
2022/09/15 10:31:43;;;;;;;;;;;;;;;15.80;88.65;100882.00;4951707;28;19941;-58
2022/09/15 10:34:30;;;;;;;;;;;;;;;15.82;88.36;100880.25;4951222;28;19926;-59
2022/09/15 10:37:14;;;;;;;;;;;;;;;15.83;87.86;100884.66;4965811;28;19988;-59
2022/09/15 10:39:50;;;;;;;;;;;;;;;15.85;87.84;100882.91;4961170;28;19914;-59
2022/09/15 10:42:21;;;;;;;;;;;;;;;15.86;87.77;100883.75;4968787;28;19910;-59
2022/09/15 10:44:53;;;;;;;;;;;;;;;15.87;87.72;100893.41;4964377;28;19914;-59
2022/09/15 10:47:44;;;;;;;;;;;;;;;15.90;87.88;100901.28;4945055;28;19919;-59
2022/09/15 10:50:12;;;;;;;;;;;;;;;15.90;87.28;100899.56;4927963;28;19914;-59
2022/09/15 10:52:46;;;;;;;;;;;;;;;15.90;86.79;100906.56;4946389;28;19965;-59
2022/09/15 10:55:32;;;;;;;;;;;;;;;15.88;86.93;100913.56;4943914;28;19918;-59
2022/09/15 10:58:09;;;;;;;;;;;;;;;15.87;86.65;100920.56;4954405;28;19915;-59
2022/09/15 11:00:42;;;;;;;;;;;;;;;15.82;86.01;100914.41;4949839;28;20013;-59
2022/09/15 11:03:13;;;;;;;;;;;;;;;15.80;86.19;100917.03;4940749;28;20365;-60
2022/09/15 11:05:44;;;;;;;;;;;;;;;15.78;85.71;100924.03;4964658;28;20429;-59
2022/09/15 11:08:23;;;;;;;;;;;;;;;15.77;85.81;100914.38;4958499;28;19956;-60
2022/09/15 11:11:07;;;;;;;;;;;;;;;15.79;86.39;100917.03;4955064;28;20028;-60
2022/09/15 11:13:43;;;;;;;;;;;;;;;15.82;86.31;100910.03;4957513;28;19918;-60
2022/09/15 11:16:14;;;;;;;;;;;;;;;15.91;86.67;100909.19;4961762;28;20542;-60
2022/09/15 11:18:42;;;;;;;;;;;;;;;15.98;86.17;100905.69;4963443;28;19953;-60
2022/09/15 11:21:26;;;;;;;;;;;;;;;16.03;85.58;100903.06;4959896;28;19918;-60
2022/09/15 11:24:05;;;;;;;;;;;;;;;16.09;85.48;100907.47;4960531;28;19937;-59
2022/09/15 11:26:42;;;;;;;;;;;;;;;16.13;85.26;100909.22;4965027;28;19957;-59
2022/09/15 11:29:14;;;;;;;;;;;;;;;16.17;84.79;100898.72;4956169;28;20417;-60
2022/09/15 11:31:41;;;;;;;;;;;;;;;16.21;83.97;100893.50;4948431;28;19918;-59
2022/09/15 11:34:25;;;;;;;;;;;;;;;16.28;83.86;100903.09;4947535;28;19968;-59
2022/09/15 11:37:06;;;;;;;;;;;;;;;16.32;83.65;100907.50;4946252;28;19924;-60
2022/09/15 11:39:40;;;;;;;;;;;;;;;16.37;84.03;100904.91;4946153;28;19949;-60
2022/09/15 11:42:13;;;;;;;;;;;;;;;16.40;83.35;100903.13;4957610;28;19918;-60
2022/09/15 11:44:39;;;;;;;;;;;;;;;16.43;83.14;100897.88;4949896;28;20001;-60
2022/09/15 11:47:23;;;;;;;;;;;;;;;16.46;82.99;100903.13;4950865;28;19915;-60
2022/09/15 11:49:56;;;;;;;;;;;;;;;16.49;82.41;100912.78;4959963;28;19910;-60
2022/09/15 11:52:25;;;;;;;;;;;;;;;16.52;82.45;100912.78;4952267;28;19918;-60
2022/09/15 11:55:05;;;;;;;;;;;;;;;16.56;82.49;100903.13;4952828;28;19918;-60
2022/09/15 11:57:38;;;;;;;;;;;;;;;16.58;82.09;100906.63;4951954;28;19933;-60
2022/09/15 12:00:09;;;;;;;;;;;;;;;16.61;81.76;100901.38;4951868;28;19922;-60
2022/09/15 12:02:40;;;;;;;;;;;;;;;16.63;80.77;100910.16;4950435;28;20002;-60
2022/09/15 12:05:11;;;;;;;;;;;;;;;16.66;81.38;100905.75;4952718;28;20021;-60
2022/09/15 12:07:42;;;;;;;;;;;;;;;16.71;81.51;100891.72;4950036;28;20690;-60
2022/09/15 12:10:33;;;;;;;;;;;;;;;16.75;81.48;100888.22;4951197;28;19918;-60
2022/09/15 12:12:59;;;;;;;;;;;;;;;16.78;80.56;100889.06;4947305;28;20378;-60
2022/09/15 12:15:27;;;;;;;;;;;;;;;16.84;80.73;100883.81;4951355;28;19933;-60
2022/09/15 12:17:57;;;;;;;;;;;;;;;16.89;80.63;100886.47;4951326;28;20008;-60
2022/09/15 12:20:36;;;;;;;;;;;;;;;16.93;80.41;100887.31;4952866;28;19914;-61
2022/09/15 12:23:05;;;;;;;;;;;;;;;16.96;79.34;100887.31;4952143;28;19949;-60
2022/09/15 12:25:38;;;;;;;;;;;;;;;16.96;78.83;100882.06;4951689;28;19997;-60
2022/09/15 12:28:21;;;;;;;;;;;;;;;16.99;79.89;100879.44;4948605;28;19914;-60
2022/09/15 12:30:47;;;;;;;;;;;;;;;17.10;80.67;100880.25;4950188;28;19937;-61
2022/09/15 12:33:42;;;;;;;;;;;;;;;17.22;80.42;100882.00;4950241;28;20382;-60
2022/09/15 12:36:26;;;;;;;;;;;;;;;17.31;78.11;100878.47;4951743;28;19918;-60
2022/09/15 12:38:51;;;;;;;;;;;;;;;17.35;78.83;100881.06;4951514;28;20076;-60
2022/09/15 12:41:17;;;;;;;;;;;;;;;17.40;78.69;100883.69;4952967;28;20377;-60
2022/09/15 12:43:50;;;;;;;;;;;;;;;17.46;79.13;100885.41;4951750;28;20271;-60
2022/09/15 12:46:17;;;;;;;;;;;;;;;17.50;78.05;100885.41;4932451;29;19925;-60